createdAt,value
2015-08-08T00:00:06.556Z,74731
2015-08-08T00:00:18.946Z,74736
2015-08-08T00:00:31.352Z,74729
2015-08-08T00:00:43.759Z,74732
2015-08-08T00:00:56.183Z,74737
2015-08-08T00:01:08.573Z,74731
2015-08-08T00:01:20.995Z,74734
2015-08-08T00:01:33.354Z,74739
2015-08-08T00:01:45.729Z,74730
2015-08-08T00:01:58.106Z,74730
2015-08-08T00:02:10.481Z,74737
2015-08-08T00:02:22.856Z,74731
2015-08-08T00:02:35.231Z,74733
2015-08-08T00:02:47.606Z,74733
2015-08-08T00:02:59.983Z,74728
2015-08-08T00:03:12.358Z,74730
2015-08-08T00:03:24.030Z,74732
2015-08-08T00:03:36.405Z,74730
2015-08-08T00:03:48.780Z,74728
2015-08-08T00:04:01.157Z,74735
2015-08-08T00:04:13.548Z,74730
2015-08-08T00:04:25.907Z,74731
2015-08-08T00:04:38.282Z,74733
2015-08-08T00:04:50.657Z,74730
2015-08-08T00:05:03.050Z,74729
2015-08-08T00:05:15.441Z,74734
2015-08-08T00:05:27.816Z,74730
2015-08-08T00:05:40.206Z,74730
2015-08-08T00:05:52.646Z,74733
2015-08-08T00:06:05.052Z,74726
2015-08-08T00:06:17.458Z,74731
2015-08-08T00:06:29.864Z,74731
2015-08-08T00:06:42.271Z,74732
2015-08-08T00:06:54.679Z,74730
2015-08-08T00:07:07.070Z,74734
2015-08-08T00:07:19.445Z,74729
2015-08-08T00:07:31.820Z,74733
2015-08-08T00:07:44.195Z,74731
2015-08-08T00:07:56.572Z,74733
2015-08-08T00:08:08.947Z,74728
2015-08-08T00:08:21.337Z,74729
2015-08-08T00:08:33.712Z,74729
2015-08-08T00:08:46.103Z,74728
2015-08-08T00:08:58.480Z,74727
2015-08-08T00:09:10.870Z,74727
2015-08-08T00:09:23.245Z,74731
2015-08-08T00:09:35.620Z,74727
2015-08-08T00:09:47.995Z,74727
2015-08-08T00:10:00.371Z,74728
2015-08-08T00:10:12.746Z,74728
2015-08-08T00:10:24.403Z,74727
2015-08-08T00:10:36.778Z,74728
2015-08-08T00:10:49.168Z,74724
2015-08-08T00:11:01.546Z,74727
2015-08-08T00:11:13.937Z,74727
2015-08-08T00:11:26.328Z,74729
2015-08-08T00:11:38.734Z,74726
2015-08-08T00:11:51.140Z,74729
2015-08-08T00:12:03.564Z,74723
2015-08-08T00:12:15.955Z,74726
2015-08-08T00:12:28.376Z,74724
2015-08-08T00:12:40.798Z,74724
2015-08-08T00:12:53.267Z,74723
2015-08-08T00:13:05.644Z,74724
2015-08-08T00:13:18.019Z,74721
2015-08-08T00:13:30.394Z,74721
2015-08-08T00:13:42.753Z,74718
2015-08-08T00:13:54.425Z,74717
2015-08-08T00:14:06.865Z,74718
2015-08-08T00:14:19.240Z,74716
2015-08-08T00:14:31.615Z,74719
2015-08-08T00:14:43.974Z,74722
2015-08-08T00:14:56.349Z,74719
2015-08-08T00:15:08.726Z,74724
2015-08-08T00:15:21.117Z,74719
2015-08-08T00:15:33.492Z,74721
2015-08-08T00:15:45.851Z,74717
2015-08-08T00:15:58.226Z,74720
2015-08-08T00:16:10.603Z,74719
2015-08-08T00:16:22.978Z,74722
2015-08-08T00:16:34.650Z,74720
2015-08-08T00:16:47.025Z,74717
2015-08-08T00:16:59.400Z,74718
2015-08-08T00:17:11.808Z,74717
2015-08-08T00:17:24.230Z,74718
2015-08-08T00:17:36.636Z,74716
2015-08-08T00:17:49.027Z,74716
2015-08-08T00:18:01.433Z,74716
2015-08-08T00:18:13.841Z,74716
2015-08-08T00:18:26.247Z,74719
2015-08-08T00:18:38.700Z,74718
2015-08-08T00:18:51.075Z,74716
2015-08-08T00:19:03.450Z,74720
2015-08-08T00:19:15.828Z,74720
2015-08-08T00:19:28.203Z,74717
2015-08-08T00:19:40.594Z,74719
2015-08-08T00:19:53.234Z,74717
2015-08-08T00:20:05.609Z,74719
2015-08-08T00:20:17.986Z,74720
2015-08-08T00:20:30.377Z,74718
2015-08-08T00:20:42.736Z,74720
2015-08-08T00:20:55.111Z,74719
2015-08-08T00:21:07.486Z,74720
2015-08-08T00:21:19.878Z,74722
2015-08-08T00:21:32.253Z,74718
2015-08-08T00:21:44.878Z,74720
2015-08-08T00:21:57.253Z,74723
2015-08-08T00:22:09.628Z,74719
2015-08-08T00:22:22.005Z,74720
2015-08-08T00:22:34.380Z,74720
2015-08-08T00:22:46.755Z,74720
2015-08-08T00:22:59.161Z,74718
2015-08-08T00:23:11.567Z,74716
2015-08-08T00:23:23.944Z,74720
2015-08-08T00:23:36.319Z,74721
2015-08-08T00:23:48.694Z,74720
2015-08-08T00:24:01.069Z,74723
2015-08-08T00:24:12.741Z,74720
2015-08-08T00:24:25.368Z,74721
2015-08-08T00:24:37.743Z,74720
2015-08-08T00:24:50.118Z,74721
2015-08-08T00:25:02.509Z,74721
2015-08-08T00:25:14.884Z,74719
2015-08-08T00:25:27.261Z,74720
2015-08-08T00:25:39.636Z,74722
2015-08-08T00:25:52.011Z,74715
2015-08-08T00:26:04.386Z,74721
2015-08-08T00:26:16.761Z,74720
2015-08-08T00:26:29.138Z,74718
2015-08-08T00:26:41.513Z,74722
2015-08-08T00:26:53.903Z,74718
2015-08-08T00:27:06.294Z,74717
2015-08-08T00:27:18.700Z,74717
2015-08-08T00:27:31.109Z,74718
2015-08-08T00:27:43.530Z,74720
2015-08-08T00:27:55.921Z,74719
2015-08-08T00:28:08.312Z,74720
2015-08-08T00:28:20.718Z,74718
2015-08-08T00:28:33.142Z,74719
2015-08-08T00:28:45.548Z,74717
2015-08-08T00:28:57.923Z,74717
2015-08-08T00:29:10.298Z,74719
2015-08-08T00:29:22.657Z,74719
2015-08-08T00:29:35.034Z,74719
2015-08-08T00:29:47.409Z,74718
2015-08-08T00:29:59.784Z,74718
2015-08-08T00:30:12.159Z,74713
2015-08-08T00:30:24.534Z,74716
2015-08-08T00:30:36.911Z,74718
2015-08-08T00:30:49.286Z,74716
2015-08-08T00:31:01.661Z,74717
2015-08-08T00:31:14.052Z,74718
2015-08-08T00:31:26.411Z,74716
2015-08-08T00:31:38.805Z,74719
2015-08-08T00:31:51.164Z,74717
2015-08-08T00:32:03.539Z,74714
2015-08-08T00:32:15.914Z,74715
2015-08-08T00:32:28.305Z,74714
2015-08-08T00:32:40.698Z,74716
2015-08-08T00:32:53.073Z,74712
2015-08-08T00:33:05.479Z,74716
2015-08-08T00:33:17.901Z,74712
2015-08-08T00:33:30.291Z,74716
2015-08-08T00:33:42.699Z,74716
2015-08-08T00:33:55.105Z,74717
2015-08-08T00:34:07.542Z,74717
2015-08-08T00:34:19.949Z,74718
2015-08-08T00:34:32.339Z,74717
2015-08-08T00:34:44.701Z,74714
2015-08-08T00:34:57.154Z,74719
2015-08-08T00:35:09.529Z,74718
2015-08-08T00:35:21.185Z,74719
2015-08-08T00:35:33.560Z,74718
2015-08-08T00:35:45.938Z,74718
2015-08-08T00:35:58.313Z,74717
2015-08-08T00:36:10.672Z,74719
2015-08-08T00:36:23.047Z,74719
2015-08-08T00:36:35.422Z,74718
2015-08-08T00:36:47.080Z,74719
2015-08-08T00:36:59.455Z,74719
2015-08-08T00:37:11.845Z,74714
2015-08-08T00:37:24.220Z,74716
2015-08-08T00:37:36.595Z,74718
2015-08-08T00:37:48.972Z,74717
2015-08-08T00:38:01.347Z,74718
2015-08-08T00:38:13.722Z,74720
2015-08-08T00:38:26.113Z,74719
2015-08-08T00:38:38.490Z,74719
2015-08-08T00:38:50.881Z,74721
2015-08-08T00:39:03.302Z,74718
2015-08-08T00:39:15.709Z,74719
2015-08-08T00:39:28.115Z,74720
2015-08-08T00:39:40.539Z,74719
2015-08-08T00:39:52.929Z,74719
2015-08-08T00:40:05.320Z,74721
2015-08-08T00:40:17.695Z,74721
2015-08-08T00:40:30.070Z,74721
2015-08-08T00:40:42.431Z,74721
2015-08-08T00:40:54.806Z,74721
2015-08-08T00:41:07.181Z,74722
2015-08-08T00:41:19.822Z,74720
2015-08-08T00:41:32.213Z,74719
2015-08-08T00:41:44.590Z,74722
2015-08-08T00:41:56.980Z,74718
2015-08-08T00:42:09.355Z,74721
2015-08-08T00:42:21.730Z,74722
2015-08-08T00:42:34.105Z,74724
2015-08-08T00:42:46.498Z,74723
2015-08-08T00:42:58.857Z,74724
2015-08-08T00:43:11.232Z,74721
2015-08-08T00:43:23.623Z,74725
2015-08-08T00:43:35.982Z,74725
2015-08-08T00:43:48.359Z,74723
2015-08-08T00:44:00.750Z,74723
2015-08-08T00:44:13.141Z,74721
2015-08-08T00:44:25.531Z,74724
2015-08-08T00:44:37.937Z,74728
2015-08-08T00:44:50.346Z,74719
2015-08-08T00:45:02.752Z,74723
2015-08-08T00:45:15.158Z,74723
2015-08-08T00:45:27.564Z,74724
2015-08-08T00:45:39.955Z,74722
2015-08-08T00:45:52.331Z,74723
2015-08-08T00:46:04.706Z,74721
2015-08-08T00:46:17.065Z,74724
2015-08-08T00:46:29.440Z,74724
2015-08-08T00:46:41.815Z,74722
2015-08-08T00:46:54.193Z,74722
2015-08-08T00:47:06.568Z,74724
2015-08-08T00:47:18.943Z,74721
2015-08-08T00:47:31.318Z,74722
2015-08-08T00:47:43.693Z,74724
2015-08-08T00:47:56.070Z,74720
2015-08-08T00:48:08.430Z,74723
2015-08-08T00:48:20.805Z,74724
2015-08-08T00:48:33.180Z,74723
2015-08-08T00:48:45.555Z,74721
2015-08-08T00:48:57.916Z,74728
2015-08-08T00:49:10.291Z,74720
2015-08-08T00:49:22.682Z,74722
2015-08-08T00:49:35.057Z,74721
2015-08-08T00:49:47.447Z,74720
2015-08-08T00:49:59.840Z,74722
2015-08-08T00:50:12.246Z,74723
2015-08-08T00:50:24.653Z,74720
2015-08-08T00:50:37.059Z,74721
2015-08-08T00:50:49.449Z,74721
2015-08-08T00:51:01.857Z,74720
2015-08-08T00:51:14.232Z,74720
2015-08-08T00:51:26.654Z,74720
2015-08-08T00:51:39.029Z,74716
2015-08-08T00:51:51.404Z,74720
2015-08-08T00:52:03.781Z,74722
2015-08-08T00:52:16.156Z,74720
2015-08-08T00:52:28.546Z,74718
2015-08-08T00:52:40.906Z,74718
2015-08-08T00:52:53.296Z,74720
2015-08-08T00:53:05.674Z,74721
2015-08-08T00:53:18.049Z,74718
2015-08-08T00:53:30.440Z,74723
2015-08-08T00:53:42.815Z,74718
2015-08-08T00:53:55.190Z,74720
2015-08-08T00:54:07.567Z,74723
2015-08-08T00:54:19.942Z,74721
2015-08-08T00:54:32.317Z,74720
2015-08-08T00:54:43.973Z,74725
2015-08-08T00:54:56.348Z,74719
2015-08-08T00:55:08.725Z,74720
2015-08-08T00:55:21.116Z,74722
2015-08-08T00:55:33.491Z,74722
2015-08-08T00:55:45.881Z,74720
2015-08-08T00:55:58.303Z,74726
2015-08-08T00:56:10.710Z,74721
2015-08-08T00:56:23.132Z,74723
2015-08-08T00:56:35.539Z,74721
2015-08-08T00:56:47.960Z,74717
2015-08-08T00:57:00.367Z,74720
2015-08-08T00:57:12.744Z,74726
2015-08-08T00:57:25.134Z,74721
2015-08-08T00:57:37.525Z,74719
2015-08-08T00:57:49.900Z,74722
2015-08-08T00:58:02.275Z,74722
2015-08-08T00:58:14.668Z,74722
2015-08-08T00:58:27.043Z,74724
2015-08-08T00:58:39.418Z,74721
2015-08-08T00:58:51.793Z,74721
2015-08-08T00:59:04.183Z,74727
2015-08-08T00:59:16.576Z,74724
2015-08-08T00:59:28.951Z,74728
2015-08-08T00:59:41.326Z,74725
2015-08-08T00:59:53.701Z,74726
2015-08-08T01:00:06.078Z,74723
2015-08-08T01:00:18.453Z,74727
2015-08-08T01:00:30.812Z,74725
2015-08-08T01:00:43.203Z,74727
2015-08-08T01:00:55.593Z,74723
2015-08-08T01:01:07.986Z,74726
2015-08-08T01:01:20.377Z,74726
2015-08-08T01:01:32.783Z,74725
2015-08-08T01:01:45.205Z,74724
2015-08-08T01:01:57.611Z,74726
2015-08-08T01:02:10.019Z,74726
2015-08-08T01:02:22.410Z,74722
2015-08-08T01:02:34.847Z,74725
2015-08-08T01:02:47.222Z,74725
2015-08-08T01:02:59.597Z,74723
2015-08-08T01:03:11.974Z,74725
2015-08-08T01:03:24.349Z,74724
2015-08-08T01:03:36.740Z,74724
2015-08-08T01:03:49.115Z,74722
2015-08-08T01:04:01.474Z,74724
2015-08-08T01:04:13.851Z,74724
2015-08-08T01:04:26.242Z,74726
2015-08-08T01:04:38.617Z,74724
2015-08-08T01:04:50.976Z,74725
2015-08-08T01:05:03.351Z,74725
2015-08-08T01:05:15.728Z,74725
2015-08-08T01:05:28.103Z,74726
2015-08-08T01:05:40.478Z,74727
2015-08-08T01:05:52.853Z,74726
2015-08-08T01:06:05.213Z,74725
2015-08-08T01:06:17.605Z,74728
2015-08-08T01:06:29.980Z,74727
2015-08-08T01:06:42.355Z,74726
2015-08-08T01:06:54.746Z,74727
2015-08-08T01:07:07.168Z,74729
2015-08-08T01:07:19.561Z,74727
2015-08-08T01:07:31.967Z,74726
2015-08-08T01:07:44.373Z,74724
2015-08-08T01:07:56.795Z,74729
2015-08-08T01:08:08.482Z,74729
2015-08-08T01:08:20.906Z,74725
2015-08-08T01:08:33.297Z,74729
2015-08-08T01:08:45.672Z,74728
2015-08-08T01:08:58.047Z,74729
2015-08-08T01:09:10.422Z,74732
2015-08-08T01:09:22.799Z,74727
2015-08-08T01:09:35.174Z,74732
2015-08-08T01:09:47.549Z,74729
2015-08-08T01:09:59.940Z,74729
2015-08-08T01:10:12.330Z,74729
2015-08-08T01:10:24.707Z,74725
2015-08-08T01:10:37.082Z,74730
2015-08-08T01:10:49.457Z,74728
2015-08-08T01:11:01.848Z,74729
2015-08-08T01:11:14.223Z,74733
2015-08-08T01:11:26.600Z,74733
2015-08-08T01:11:38.975Z,74729
2015-08-08T01:11:51.350Z,74734
2015-08-08T01:12:03.740Z,74734
2015-08-08T01:12:16.115Z,74731
2015-08-08T01:12:28.508Z,74731
2015-08-08T01:12:40.899Z,74733
2015-08-08T01:12:53.305Z,74738
2015-08-08T01:13:05.711Z,74731
2015-08-08T01:13:18.117Z,74735
2015-08-08T01:13:30.526Z,74731
2015-08-08T01:13:42.948Z,74736
2015-08-08T01:13:55.338Z,74734
2015-08-08T01:14:07.744Z,74733
2015-08-08T01:14:20.135Z,74728
2015-08-08T01:14:32.496Z,74731
2015-08-08T01:14:44.871Z,74735
2015-08-08T01:14:57.246Z,74735
2015-08-08T01:15:09.621Z,74737
2015-08-08T01:15:22.012Z,74736
2015-08-08T01:15:34.389Z,74736
2015-08-08T01:15:46.748Z,74736
2015-08-08T01:15:59.139Z,74736
2015-08-08T01:16:11.498Z,74733
2015-08-08T01:16:23.873Z,74737
2015-08-08T01:16:36.249Z,74736
2015-08-08T01:16:48.624Z,74730
2015-08-08T01:17:00.999Z,74738
2015-08-08T01:17:13.374Z,74734
2015-08-08T01:17:25.781Z,74731
2015-08-08T01:17:38.174Z,74737
2015-08-08T01:17:50.549Z,74735
2015-08-08T01:18:02.940Z,74736
2015-08-08T01:18:15.331Z,74737
2015-08-08T01:18:27.737Z,74737
2015-08-08T01:18:40.160Z,74738
2015-08-08T01:18:52.566Z,74737
2015-08-08T01:19:04.957Z,74737
2015-08-08T01:19:17.378Z,74738
2015-08-08T01:19:29.785Z,74739
2015-08-08T01:19:42.177Z,74736
2015-08-08T01:19:54.568Z,74739
2015-08-08T01:20:06.943Z,74740
2015-08-08T01:20:19.318Z,74734
2015-08-08T01:20:31.693Z,74738
2015-08-08T01:20:44.071Z,74742
2015-08-08T01:20:56.446Z,74737
2015-08-08T01:21:08.821Z,74738
2015-08-08T01:21:21.196Z,74743
2015-08-08T01:21:33.852Z,74740
2015-08-08T01:21:46.245Z,74737
2015-08-08T01:21:58.620Z,74739
2015-08-08T01:22:10.979Z,74738
2015-08-08T01:22:23.354Z,74739
2015-08-08T01:22:35.745Z,74742
2015-08-08T01:22:48.121Z,74739
2015-08-08T01:23:00.511Z,74739
2015-08-08T01:23:12.886Z,74740
2015-08-08T01:23:25.261Z,74743
2015-08-08T01:23:37.636Z,74743
2015-08-08T01:23:50.045Z,74740
2015-08-08T01:24:02.435Z,74743
2015-08-08T01:24:14.857Z,74741
2015-08-08T01:24:27.263Z,74743
2015-08-08T01:24:39.654Z,74740
2015-08-08T01:24:52.062Z,74743
2015-08-08T01:25:04.469Z,74746
2015-08-08T01:25:16.875Z,74739
2015-08-08T01:25:29.265Z,74739
2015-08-08T01:25:41.640Z,74740
2015-08-08T01:25:54.017Z,74740
2015-08-08T01:26:06.392Z,74746
2015-08-08T01:26:18.767Z,74740
2015-08-08T01:26:30.439Z,74740
2015-08-08T01:26:42.801Z,74743
2015-08-08T01:26:55.176Z,74742
2015-08-08T01:27:07.566Z,74743
2015-08-08T01:27:19.941Z,74742
2015-08-08T01:27:32.363Z,74740
2015-08-08T01:27:44.740Z,74741
2015-08-08T01:27:57.115Z,74742
2015-08-08T01:28:09.506Z,74742
2015-08-08T01:28:21.896Z,74738
2015-08-08T01:28:34.271Z,74737
2015-08-08T01:28:46.648Z,74736
2015-08-08T01:28:59.023Z,74740
2015-08-08T01:29:11.398Z,74738
2015-08-08T01:29:23.773Z,74739
2015-08-08T01:29:36.164Z,74742
2015-08-08T01:29:48.557Z,74737
2015-08-08T01:30:00.963Z,74738
2015-08-08T01:30:13.385Z,74739
2015-08-08T01:30:25.775Z,74740
2015-08-08T01:30:38.182Z,74742
2015-08-08T01:30:50.621Z,74741
2015-08-08T01:31:03.027Z,74739
2015-08-08T01:31:15.402Z,74737
2015-08-08T01:31:27.777Z,74740
2015-08-08T01:31:39.434Z,74742
2015-08-08T01:31:51.811Z,74741
2015-08-08T01:32:04.186Z,74743
2015-08-08T01:32:16.561Z,74742
2015-08-08T01:32:28.936Z,74742
2015-08-08T01:32:41.311Z,74740
2015-08-08T01:32:53.688Z,74740
2015-08-08T01:33:06.063Z,74742
2015-08-08T01:33:18.438Z,74741
2015-08-08T01:33:30.844Z,74741
2015-08-08T01:33:43.219Z,74740
2015-08-08T01:33:55.612Z,74740
2015-08-08T01:34:07.268Z,74739
2015-08-08T01:34:19.643Z,74739
2015-08-08T01:34:32.018Z,74739
2015-08-08T01:34:44.393Z,74738
2015-08-08T01:34:56.769Z,74740
2015-08-08T01:35:09.159Z,74740
2015-08-08T01:35:21.550Z,74740
2015-08-08T01:35:33.956Z,74742
2015-08-08T01:35:46.363Z,74740
2015-08-08T01:35:58.772Z,74740
2015-08-08T01:36:11.178Z,74740
2015-08-08T01:36:23.584Z,74740
2015-08-08T01:36:35.991Z,74740
2015-08-08T01:36:48.397Z,74737
2015-08-08T01:37:00.774Z,74740
2015-08-08T01:37:13.149Z,74742
2015-08-08T01:37:25.524Z,74741
2015-08-08T01:37:37.883Z,74739
2015-08-08T01:37:50.274Z,74740
2015-08-08T01:38:02.665Z,74743
2015-08-08T01:38:15.525Z,74737
2015-08-08T01:38:27.900Z,74743
2015-08-08T01:38:40.290Z,74741
2015-08-08T01:38:52.728Z,74739
2015-08-08T01:39:05.106Z,74739
2015-08-08T01:39:17.481Z,74742
2015-08-08T01:39:29.872Z,74743
2015-08-08T01:39:42.247Z,74744
2015-08-08T01:39:54.622Z,74743
2015-08-08T01:40:06.999Z,74743
2015-08-08T01:40:19.374Z,74743
2015-08-08T01:40:31.764Z,74741
2015-08-08T01:40:44.155Z,74741
2015-08-08T01:40:56.545Z,74743
2015-08-08T01:41:08.938Z,74746
2015-08-08T01:41:21.376Z,74741
2015-08-08T01:41:33.782Z,74742
2015-08-08T01:41:46.172Z,74737
2015-08-08T01:41:58.563Z,74743
2015-08-08T01:42:10.970Z,74741
2015-08-08T01:42:23.361Z,74739
2015-08-08T01:42:35.814Z,74743
2015-08-08T01:42:48.173Z,74743
2015-08-08T01:43:00.548Z,74744
2015-08-08T01:43:12.925Z,74744
2015-08-08T01:43:25.300Z,74744
2015-08-08T01:43:37.675Z,74741
2015-08-08T01:43:50.050Z,74739
2015-08-08T01:44:02.410Z,74740
2015-08-08T01:44:14.803Z,74736
2015-08-08T01:44:27.178Z,74739
2015-08-08T01:44:38.850Z,74738
2015-08-08T01:44:51.225Z,74738
2015-08-08T01:45:03.647Z,74736
2015-08-08T01:45:16.039Z,74736
2015-08-08T01:45:28.414Z,74739
2015-08-08T01:45:40.789Z,74742
2015-08-08T01:45:53.164Z,74739
2015-08-08T01:46:05.539Z,74740
2015-08-08T01:46:17.917Z,74740
2015-08-08T01:46:30.292Z,74740
2015-08-08T01:46:41.964Z,74740
2015-08-08T01:46:54.354Z,74738
2015-08-08T01:47:06.761Z,74738
2015-08-08T01:47:19.183Z,74742
2015-08-08T01:47:31.574Z,74740
2015-08-08T01:47:43.980Z,74742
2015-08-08T01:47:56.387Z,74741
2015-08-08T01:48:08.808Z,74737
2015-08-08T01:48:21.185Z,74743
2015-08-08T01:48:33.560Z,74742
2015-08-08T01:48:45.935Z,74743
2015-08-08T01:48:58.310Z,74743
2015-08-08T01:49:10.685Z,74744
2015-08-08T01:49:23.062Z,74740
2015-08-08T01:49:35.437Z,74742
2015-08-08T01:49:47.094Z,74739
2015-08-08T01:49:59.484Z,74741
2015-08-08T01:50:11.859Z,74741
2015-08-08T01:50:24.236Z,74742
2015-08-08T01:50:36.611Z,74744
2015-08-08T01:50:48.986Z,74744
2015-08-08T01:51:01.377Z,74737
2015-08-08T01:51:13.768Z,74743
2015-08-08T01:51:26.145Z,74743
2015-08-08T01:51:38.566Z,74741
2015-08-08T01:51:50.957Z,74741
2015-08-08T01:52:03.348Z,74741
2015-08-08T01:52:15.770Z,74742
2015-08-08T01:52:28.163Z,74744
2015-08-08T01:52:40.585Z,74743
2015-08-08T01:52:52.991Z,74746
2015-08-08T01:53:05.413Z,74744
2015-08-08T01:53:17.788Z,74745
2015-08-08T01:53:30.164Z,74742
2015-08-08T01:53:42.539Z,74742
2015-08-08T01:53:54.914Z,74745
2015-08-08T01:54:07.305Z,74743
2015-08-08T01:54:19.680Z,74745
2015-08-08T01:54:32.058Z,74744
2015-08-08T01:54:44.433Z,74748
2015-08-08T01:54:56.823Z,74746
2015-08-08T01:55:09.198Z,74743
2015-08-08T01:55:21.573Z,74745
2015-08-08T01:55:33.950Z,74742
2015-08-08T01:55:46.325Z,74742
2015-08-08T01:55:58.700Z,74742
2015-08-08T01:56:11.075Z,74743
2015-08-08T01:56:23.450Z,74741
2015-08-08T01:56:35.826Z,74743
2015-08-08T01:56:48.217Z,74747
2015-08-08T01:57:00.608Z,74744
2015-08-08T01:57:12.983Z,74739
2015-08-08T01:57:25.373Z,74744
2015-08-08T01:57:37.798Z,74742
2015-08-08T01:57:50.204Z,74743
2015-08-08T01:58:02.611Z,74747
2015-08-08T01:58:15.017Z,74750
2015-08-08T01:58:27.439Z,74751
2015-08-08T01:58:39.830Z,74745
2015-08-08T01:58:52.205Z,74748
2015-08-08T01:59:04.580Z,74743
2015-08-08T01:59:16.955Z,74745
2015-08-08T01:59:29.332Z,74741
2015-08-08T01:59:41.723Z,74743
2015-08-08T01:59:54.082Z,74742
2015-08-08T02:00:06.457Z,74742
2015-08-08T02:00:18.848Z,74743
2015-08-08T02:00:30.522Z,74742
2015-08-08T02:00:42.897Z,74744
2015-08-08T02:00:55.272Z,74745
2015-08-08T02:01:07.647Z,74745
2015-08-08T02:01:20.038Z,74743
2015-08-08T02:01:32.415Z,74746
2015-08-08T02:01:44.790Z,74744
2015-08-08T02:01:57.180Z,74743
2015-08-08T02:02:09.555Z,74743
2015-08-08T02:02:21.993Z,74743
2015-08-08T02:02:34.370Z,74743
2015-08-08T02:02:46.042Z,74742
2015-08-08T02:02:58.432Z,74742
2015-08-08T02:03:10.854Z,74743
2015-08-08T02:03:23.276Z,74740
2015-08-08T02:03:35.684Z,74744
2015-08-08T02:03:48.075Z,74741
2015-08-08T02:04:00.481Z,74746
2015-08-08T02:04:12.872Z,74745
2015-08-08T02:04:25.278Z,74749
2015-08-08T02:04:37.639Z,74743
2015-08-08T02:04:50.014Z,74746
2015-08-08T02:05:02.374Z,74743
2015-08-08T02:05:14.749Z,74743
2015-08-08T02:05:27.124Z,74744
2015-08-08T02:05:39.500Z,74744
2015-08-08T02:05:51.875Z,74743
2015-08-08T02:06:04.250Z,74742
2015-08-08T02:06:16.625Z,74745
2015-08-08T02:06:29.000Z,74742
2015-08-08T02:06:41.362Z,74744
2015-08-08T02:06:53.737Z,74742
2015-08-08T02:07:06.112Z,74745
2015-08-08T02:07:18.487Z,74743
2015-08-08T02:07:30.878Z,74745
2015-08-08T02:07:43.255Z,74743
2015-08-08T02:07:55.614Z,74743
2015-08-08T02:08:07.989Z,74739
2015-08-08T02:08:20.380Z,74740
2015-08-08T02:08:32.755Z,74744
2015-08-08T02:08:45.146Z,74741
2015-08-08T02:08:57.568Z,74740
2015-08-08T02:09:09.974Z,74743
2015-08-08T02:09:22.381Z,74744
2015-08-08T02:09:34.787Z,74742
2015-08-08T02:09:47.212Z,74746
2015-08-08T02:09:59.602Z,74741
2015-08-08T02:10:12.009Z,74742
2015-08-08T02:10:24.384Z,74747
2015-08-08T02:10:36.759Z,74742
2015-08-08T02:10:49.136Z,74743
2015-08-08T02:11:01.511Z,74742
2015-08-08T02:11:13.886Z,74744
2015-08-08T02:11:26.261Z,74738
2015-08-08T02:11:38.636Z,74738
2015-08-08T02:11:51.013Z,74742
2015-08-08T02:12:03.403Z,74740
2015-08-08T02:12:15.778Z,74740
2015-08-08T02:12:28.153Z,74744
2015-08-08T02:12:40.528Z,74744
2015-08-08T02:12:52.904Z,74743
2015-08-08T02:13:05.279Z,74742
2015-08-08T02:13:17.654Z,74739
2015-08-08T02:13:30.014Z,74741
2015-08-08T02:13:42.404Z,74743
2015-08-08T02:13:54.781Z,74742
2015-08-08T02:14:07.172Z,74745
2015-08-08T02:14:19.563Z,74743
2015-08-08T02:14:31.969Z,74746
2015-08-08T02:14:44.394Z,74745
2015-08-08T02:14:56.816Z,74743
2015-08-08T02:15:09.222Z,74744
2015-08-08T02:15:21.628Z,74745
2015-08-08T02:15:34.019Z,74743
2015-08-08T02:15:46.426Z,74744
2015-08-08T02:15:58.817Z,74747
2015-08-08T02:16:10.488Z,74744
2015-08-08T02:16:22.863Z,74745
2015-08-08T02:16:35.238Z,74745
2015-08-08T02:16:47.615Z,74740
2015-08-08T02:17:00.006Z,74745
2015-08-08T02:17:12.381Z,74747
2015-08-08T02:17:24.740Z,74746
2015-08-08T02:17:37.115Z,74746
2015-08-08T02:17:49.508Z,74743
2015-08-08T02:18:01.883Z,74748
2015-08-08T02:18:14.242Z,74746
2015-08-08T02:18:26.649Z,74746
2015-08-08T02:18:39.039Z,74746
2015-08-08T02:18:51.416Z,74745
2015-08-08T02:19:03.776Z,74740
2015-08-08T02:19:16.151Z,74740
2015-08-08T02:19:28.526Z,74740
2015-08-08T02:19:40.916Z,74739
2015-08-08T02:19:53.293Z,74746
2015-08-08T02:20:05.684Z,74744
2015-08-08T02:20:18.075Z,74742
2015-08-08T02:20:30.481Z,74744
2015-08-08T02:20:42.918Z,74744
2015-08-08T02:20:55.327Z,74744
2015-08-08T02:21:07.748Z,74741
2015-08-08T02:21:20.155Z,74744
2015-08-08T02:21:32.577Z,74740
2015-08-08T02:21:44.967Z,74743
2015-08-08T02:21:57.344Z,74739
2015-08-08T02:22:09.985Z,74738
2015-08-08T02:22:22.344Z,74743
2015-08-08T02:22:34.735Z,74740
2015-08-08T02:22:47.110Z,74740
2015-08-08T02:22:59.487Z,74743
2015-08-08T02:23:11.862Z,74747
2015-08-08T02:23:24.237Z,74745
2015-08-08T02:23:36.612Z,74747
2015-08-08T02:23:48.987Z,74746
2015-08-08T02:24:01.364Z,74749
2015-08-08T02:24:13.739Z,74752
2015-08-08T02:24:26.129Z,74748
2015-08-08T02:24:38.520Z,74742
2015-08-08T02:24:50.895Z,74746
2015-08-08T02:25:03.273Z,74744
2015-08-08T02:25:15.664Z,74745
2015-08-08T02:25:28.039Z,74745
2015-08-08T02:25:40.429Z,74742
2015-08-08T02:25:52.836Z,74741
2015-08-08T02:26:05.227Z,74747
2015-08-08T02:26:17.633Z,74744
2015-08-08T02:26:30.040Z,74746
2015-08-08T02:26:42.446Z,74746
2015-08-08T02:26:54.868Z,74745
2015-08-08T02:27:07.260Z,74748
2015-08-08T02:27:19.651Z,74742
2015-08-08T02:27:32.026Z,74742
2015-08-08T02:27:44.401Z,74742
2015-08-08T02:27:56.776Z,74740
2015-08-08T02:28:09.137Z,74744
2015-08-08T02:28:21.528Z,74742
2015-08-08T02:28:33.184Z,74741
2015-08-08T02:28:45.559Z,74743
2015-08-08T02:28:57.934Z,74742
2015-08-08T02:29:10.327Z,74740
2015-08-08T02:29:22.702Z,74740
2015-08-08T02:29:35.077Z,74739
2015-08-08T02:29:47.436Z,74740
2015-08-08T02:29:59.811Z,74745
2015-08-08T02:30:12.188Z,74743
2015-08-08T02:30:24.548Z,74739
2015-08-08T02:30:36.923Z,74742
2015-08-08T02:30:49.298Z,74743
2015-08-08T02:31:01.688Z,74742
2015-08-08T02:31:14.065Z,74740
2015-08-08T02:31:25.737Z,74738
2015-08-08T02:31:38.159Z,74739
2015-08-08T02:31:50.565Z,74741
2015-08-08T02:32:02.972Z,74742
2015-08-08T02:32:15.364Z,74746
2015-08-08T02:32:27.770Z,74741
2015-08-08T02:32:40.161Z,74738
2015-08-08T02:32:52.552Z,74740
2015-08-08T02:33:04.927Z,74744
2015-08-08T02:33:17.304Z,74740
2015-08-08T02:33:29.679Z,74740
2015-08-08T02:33:42.054Z,74745
2015-08-08T02:33:54.429Z,74746
2015-08-08T02:34:06.804Z,74745
2015-08-08T02:34:19.181Z,74744
2015-08-08T02:34:31.556Z,74742
2015-08-08T02:34:43.931Z,74740
2015-08-08T02:34:56.306Z,74740
2015-08-08T02:35:08.681Z,74740
2015-08-08T02:35:21.058Z,74738
2015-08-08T02:35:33.433Z,74740
2015-08-08T02:35:45.808Z,74740
2015-08-08T02:35:58.183Z,74742
2015-08-08T02:36:10.558Z,74743
2015-08-08T02:36:22.935Z,74744
2015-08-08T02:36:35.341Z,74745
2015-08-08T02:36:47.716Z,74747
2015-08-08T02:37:00.107Z,74745
2015-08-08T02:37:12.497Z,74745
2015-08-08T02:37:24.921Z,74741
2015-08-08T02:37:37.327Z,74745
2015-08-08T02:37:49.734Z,74744
2015-08-08T02:38:02.140Z,74744
2015-08-08T02:38:14.546Z,74743
2015-08-08T02:38:26.953Z,74742
2015-08-08T02:38:39.328Z,74741
2015-08-08T02:38:51.688Z,74741
2015-08-08T02:39:04.063Z,74743
2015-08-08T02:39:16.438Z,74745